createdAt,value
2023-02-24T00:00:50.524Z,94626.00
2023-02-24T00:01:50.522Z,94626.00
2023-02-24T00:02:50.553Z,94626.00
2023-02-24T00:03:50.593Z,94624.00
2023-02-24T00:04:50.555Z,94624.00
2023-02-24T00:05:50.562Z,94622.00
2023-02-24T00:06:50.634Z,94622.00
2023-02-24T00:07:50.598Z,94622.00
2023-02-24T00:08:50.608Z,94626.00
2023-02-24T00:09:50.646Z,94626.00
2023-02-24T00:10:50.640Z,94626.00
2023-02-24T00:11:50.630Z,94626.00
2023-02-24T00:12:50.671Z,94622.00
2023-02-24T00:13:50.640Z,94626.00
2023-02-24T00:14:50.693Z,94626.00
2023-02-24T00:15:50.703Z,94626.00
2023-02-24T00:16:50.808Z,94628.00
2023-02-24T00:17:50.688Z,94626.00
2023-02-24T00:18:50.698Z,94628.00
2023-02-24T00:19:50.697Z,94628.00
2023-02-24T00:20:50.725Z,94626.00
2023-02-24T00:21:50.735Z,94626.00
2023-02-24T00:22:50.735Z,94626.00
2023-02-24T00:23:50.773Z,94626.00
2023-02-24T00:24:50.786Z,94624.00
2023-02-24T00:25:50.793Z,94622.00
2023-02-24T00:26:50.749Z,94622.00
2023-02-24T00:27:50.762Z,94622.00
2023-02-24T00:28:50.783Z,94621.00
2023-02-24T00:29:50.786Z,94621.00
2023-02-24T00:30:50.821Z,94619.00
2023-02-24T00:31:51.088Z,94619.00
2023-02-24T00:32:50.945Z,94617.00
2023-02-24T00:33:50.741Z,94617.00
2023-02-24T00:34:50.736Z,94615.00
2023-02-24T00:35:50.763Z,94613.00
2023-02-24T00:36:50.754Z,94613.00
2023-02-24T00:37:50.765Z,94611.00
2023-02-24T00:38:50.746Z,94611.00
2023-02-24T00:39:50.739Z,94611.00
2023-02-24T00:40:50.767Z,94609.00
2023-02-24T00:41:50.737Z,94611.00
2023-02-24T00:42:50.720Z,94611.00
2023-02-24T00:43:50.729Z,94605.00
2023-02-24T00:44:50.786Z,94607.00
2023-02-24T00:45:50.739Z,94609.00
2023-02-24T00:46:50.734Z,94611.00
2023-02-24T00:47:50.751Z,94611.00
2023-02-24T00:48:50.718Z,94611.00
2023-02-24T00:49:50.718Z,94609.00
2023-02-24T00:50:50.767Z,94607.00
2023-02-24T00:51:50.730Z,94607.00
2023-02-24T00:52:50.764Z,94605.00
2023-02-24T00:53:50.802Z,94603.00
2023-02-24T00:54:50.761Z,94601.00
2023-02-24T00:55:50.753Z,94599.00
2023-02-24T00:56:50.746Z,94599.00
2023-02-24T00:57:50.797Z,94603.00
2023-02-24T00:58:50.770Z,94599.00
2023-02-24T00:59:50.787Z,94599.00
2023-02-24T01:00:50.759Z,94599.00
2023-02-24T01:01:50.853Z,94597.00
2023-02-24T01:02:50.741Z,94595.00
2023-02-24T01:03:50.788Z,94595.00
2023-02-24T01:04:50.772Z,94595.00
2023-02-24T01:05:50.741Z,94595.00
2023-02-24T01:06:50.747Z,94593.00
2023-02-24T01:07:50.736Z,94589.00
2023-02-24T01:08:50.740Z,94589.00
2023-02-24T01:09:50.749Z,94591.00
2023-02-24T01:10:50.750Z,94587.00
2023-02-24T01:11:50.758Z,94587.00
2023-02-24T01:12:50.790Z,94585.00
2023-02-24T01:13:50.736Z,94585.00
2023-02-24T01:14:50.738Z,94581.00
2023-02-24T01:15:50.770Z,94583.00
2023-02-24T01:16:50.764Z,94581.00
2023-02-24T01:17:50.716Z,94581.00
2023-02-24T01:18:50.745Z,94579.00
2023-02-24T01:19:50.769Z,94577.00
2023-02-24T01:20:50.745Z,94575.00
2023-02-24T01:21:50.773Z,94575.00
2023-02-24T01:22:50.759Z,94574.00
2023-02-24T01:23:50.783Z,94574.00
2023-02-24T01:24:50.736Z,94574.00
2023-02-24T01:25:50.738Z,94574.00
2023-02-24T01:26:50.784Z,94572.00
2023-02-24T01:27:50.789Z,94570.00
2023-02-24T01:28:50.764Z,94570.00
2023-02-24T01:29:50.779Z,94570.00
2023-02-24T01:30:50.763Z,94570.00
2023-02-24T01:31:50.999Z,94568.00
2023-02-24T01:32:51.055Z,94566.00
2023-02-24T01:33:50.748Z,94568.00
2023-02-24T01:34:50.768Z,94568.00
2023-02-24T01:35:50.760Z,94566.00
2023-02-24T01:36:50.820Z,94568.00
2023-02-24T01:37:50.750Z,94564.00
2023-02-24T01:38:50.785Z,94562.00
2023-02-24T01:39:50.792Z,94558.00
2023-02-24T01:40:50.788Z,94556.00
2023-02-24T01:41:50.796Z,94554.00
2023-02-24T01:42:50.831Z,94552.00
2023-02-24T01:43:50.792Z,94554.00
2023-02-24T01:44:50.771Z,94550.00
2023-02-24T01:45:50.782Z,94546.00
2023-02-24T01:46:50.804Z,94544.00
2023-02-24T01:47:50.823Z,94540.00
2023-02-24T01:48:50.803Z,94538.00
2023-02-24T01:49:50.808Z,94538.00
2023-02-24T01:50:50.772Z,94542.00
2023-02-24T01:51:50.829Z,94540.00
2023-02-24T01:52:50.786Z,94540.00
2023-02-24T01:53:50.802Z,94540.00
2023-02-24T01:54:50.802Z,94540.00
2023-02-24T01:55:50.849Z,94538.00
2023-02-24T01:56:50.829Z,94536.00
2023-02-24T01:57:50.842Z,94536.00
2023-02-24T01:58:50.825Z,94534.00
2023-02-24T01:59:50.832Z,94536.00
2023-02-24T02:00:50.872Z,94536.00
2023-02-24T02:01:50.912Z,94534.00
2023-02-24T02:02:51.024Z,94538.00
2023-02-24T02:03:50.861Z,94538.00
2023-02-24T02:04:50.889Z,94538.00
2023-02-24T02:05:50.898Z,94540.00
2023-02-24T02:06:50.888Z,94534.00
2023-02-24T02:07:50.903Z,94534.00
2023-02-24T02:08:50.908Z,94534.00
2023-02-24T02:09:50.907Z,94534.00
2023-02-24T02:10:50.877Z,94532.00
2023-02-24T02:11:50.911Z,94534.00
2023-02-24T02:12:50.941Z,94534.00
2023-02-24T02:13:50.981Z,94532.00
2023-02-24T02:14:50.943Z,94532.00
2023-02-24T02:15:50.962Z,94534.00
2023-02-24T02:16:50.950Z,94532.00
2023-02-24T02:17:50.972Z,94532.00
2023-02-24T02:18:50.971Z,94534.00
2023-02-24T02:19:50.972Z,94532.00
2023-02-24T02:20:51.030Z,94534.00
2023-02-24T02:21:51.032Z,94532.00
2023-02-24T02:22:51.012Z,94536.00
2023-02-24T02:23:51.048Z,94536.00
2023-02-24T02:24:51.056Z,94534.00
2023-02-24T02:25:51.056Z,94534.00
2023-02-24T02:26:51.090Z,94534.00
2023-02-24T02:27:51.113Z,94532.00
2023-02-24T02:28:51.124Z,94532.00
2023-02-24T02:29:51.130Z,94530.00
2023-02-24T02:30:51.148Z,94530.00
2023-02-24T02:31:51.257Z,94528.00
2023-02-24T02:32:51.643Z,94530.00
2023-02-24T02:33:51.477Z,94528.00
2023-02-24T02:34:51.181Z,94528.00
2023-02-24T02:35:51.238Z,94528.00
2023-02-24T02:36:51.239Z,94530.00
2023-02-24T02:37:51.247Z,94532.00
2023-02-24T02:38:51.257Z,94532.00
2023-02-24T02:39:51.255Z,94532.00
2023-02-24T02:40:51.267Z,94532.00
2023-02-24T02:41:51.270Z,94532.00
2023-02-24T02:42:51.257Z,94534.00
2023-02-24T02:43:51.285Z,94534.00
2023-02-24T02:44:51.261Z,94530.00
2023-02-24T02:45:51.302Z,94534.00
2023-02-24T02:46:51.266Z,94532.00
2023-02-24T02:47:51.305Z,94528.00
2023-02-24T02:48:51.325Z,94530.00
2023-02-24T02:49:51.320Z,94530.00
2023-02-24T02:50:51.363Z,94530.00
2023-02-24T02:51:51.369Z,94532.00
2023-02-24T02:52:51.381Z,94534.00
2023-02-24T02:53:51.387Z,94536.00
2023-02-24T02:54:51.411Z,94538.00
2023-02-24T02:55:51.391Z,94536.00
2023-02-24T02:56:51.428Z,94536.00
2023-02-24T02:57:51.456Z,94538.00
2023-02-24T02:58:51.426Z,94534.00
2023-02-24T02:59:51.459Z,94536.00
2023-02-24T03:00:51.501Z,94532.00
2023-02-24T03:01:51.480Z,94530.00
2023-02-24T03:02:51.837Z,94530.00
2023-02-24T03:03:51.544Z,94530.00
2023-02-24T03:04:51.626Z,94530.00
2023-02-24T03:05:51.580Z,94530.00
2023-02-24T03:06:51.570Z,94530.00
2023-02-24T03:07:51.598Z,94530.00
2023-02-24T03:08:51.651Z,94527.00
2023-02-24T03:09:51.650Z,94528.00
2023-02-24T03:10:51.627Z,94528.00
2023-02-24T03:11:51.651Z,94528.00
2023-02-24T03:12:51.674Z,94528.00
2023-02-24T03:13:51.648Z,94528.00
2023-02-24T03:14:51.683Z,94527.00
2023-02-24T03:15:51.694Z,94525.00
2023-02-24T03:16:51.805Z,94525.00
2023-02-24T03:17:51.748Z,94527.00
2023-02-24T03:18:51.752Z,94527.00
2023-02-24T03:19:51.762Z,94525.00
2023-02-24T03:20:51.797Z,94523.00
2023-02-24T03:21:51.805Z,94523.00
2023-02-24T03:22:51.812Z,94525.00
2023-02-24T03:23:51.810Z,94528.00
2023-02-24T03:24:51.814Z,94525.00
2023-02-24T03:25:51.827Z,94525.00
2023-02-24T03:26:51.874Z,94525.00
2023-02-24T03:27:51.873Z,94527.00
2023-02-24T03:28:51.920Z,94528.00
2023-02-24T03:29:51.941Z,94528.00
2023-02-24T03:30:51.960Z,94525.00
2023-02-24T03:31:52.053Z,94528.00
2023-02-24T03:32:52.089Z,94528.00
2023-02-24T03:33:52.002Z,94527.00
2023-02-24T03:34:52.003Z,94527.00
2023-02-24T03:35:52.048Z,94527.00
2023-02-24T03:36:52.040Z,94525.00
2023-02-24T03:37:52.134Z,94525.00
2023-02-24T03:38:52.105Z,94523.00
2023-02-24T03:39:52.107Z,94523.00
2023-02-24T03:40:52.128Z,94521.00
2023-02-24T03:41:52.150Z,94521.00
2023-02-24T03:42:52.174Z,94521.00
2023-02-24T03:43:52.195Z,94523.00
2023-02-24T03:44:52.238Z,94523.00
2023-02-24T03:45:52.242Z,94523.00
2023-02-24T03:46:52.259Z,94521.00
2023-02-24T03:47:52.287Z,94519.00
2023-02-24T03:48:52.303Z,94521.00
2023-02-24T03:49:52.350Z,94521.00
2023-02-24T03:50:52.397Z,94517.00
2023-02-24T03:51:52.381Z,94515.00
2023-02-24T03:52:52.463Z,94517.00
2023-02-24T03:53:52.422Z,94517.00
2023-02-24T03:54:52.436Z,94515.00
2023-02-24T03:55:52.484Z,94513.00
2023-02-24T03:56:52.485Z,94515.00
2023-02-24T03:57:52.496Z,94511.00
2023-02-24T03:58:52.544Z,94511.00
2023-02-24T03:59:52.544Z,94509.00
2023-02-24T04:00:52.591Z,94507.00
2023-02-24T04:01:52.617Z,94509.00
2023-02-24T04:02:52.647Z,94505.00
2023-02-24T04:03:52.685Z,94509.00
2023-02-24T04:04:52.807Z,94507.00
2023-02-24T04:05:52.700Z,94511.00
2023-02-24T04:06:55.035Z,94511.00
2023-02-24T04:07:52.732Z,94509.00
2023-02-24T04:08:52.709Z,94513.00
2023-02-24T04:09:52.684Z,94509.00
2023-02-24T04:10:52.839Z,94509.00
2023-02-24T04:11:52.697Z,94507.00
2023-02-24T04:12:52.713Z,94505.00
2023-02-24T04:13:52.713Z,94503.00
2023-02-24T04:14:52.671Z,94503.00
2023-02-24T04:15:52.693Z,94501.00
2023-02-24T04:16:52.641Z,94501.00
2023-02-24T04:17:52.677Z,94497.00
2023-02-24T04:18:52.648Z,94497.00
2023-02-24T04:19:52.649Z,94497.00
2023-02-24T04:20:52.610Z,94497.00
2023-02-24T04:21:52.602Z,94495.00
2023-02-24T04:22:52.627Z,94495.00
2023-02-24T04:23:52.618Z,94499.00
2023-02-24T04:24:52.661Z,94495.00
2023-02-24T04:25:52.573Z,94497.00
2023-02-24T04:26:52.619Z,94497.00
2023-02-24T04:27:52.595Z,94495.00
2023-02-24T04:28:52.580Z,94491.00
2023-02-24T04:29:52.578Z,94493.00
2023-02-24T04:30:52.692Z,94489.00
2023-02-24T04:31:52.731Z,94491.00
2023-02-24T04:32:52.615Z,94489.00
2023-02-24T04:33:52.533Z,94489.00
2023-02-24T04:34:52.543Z,94487.00
2023-02-24T04:35:52.553Z,94487.00
2023-02-24T04:36:52.526Z,94485.00
2023-02-24T04:37:52.539Z,94483.00
2023-02-24T04:38:52.521Z,94483.00
2023-02-24T04:39:52.521Z,94480.00
2023-02-24T04:40:52.487Z,94478.00
2023-02-24T04:41:52.468Z,94476.00
2023-02-24T04:42:52.474Z,94472.00
2023-02-24T04:43:52.475Z,94470.00
2023-02-24T04:44:52.481Z,94468.00
2023-02-24T04:45:52.463Z,94468.00
2023-02-24T04:46:52.463Z,94470.00
2023-02-24T04:47:52.480Z,94468.00
2023-02-24T04:48:52.435Z,94470.00
2023-02-24T04:49:52.412Z,94466.00
2023-02-24T04:50:52.446Z,94466.00
2023-02-24T04:51:52.430Z,94466.00
2023-02-24T04:52:52.433Z,94464.00
2023-02-24T04:53:52.415Z,94464.00
2023-02-24T04:54:52.437Z,94464.00
2023-02-24T04:55:52.373Z,94460.00
2023-02-24T04:56:52.397Z,94460.00
2023-02-24T04:57:52.396Z,94462.00
2023-02-24T04:58:52.374Z,94458.00
2023-02-24T04:59:52.352Z,94460.00
2023-02-24T05:00:52.387Z,94458.00
2023-02-24T05:01:52.378Z,94458.00
2023-02-24T05:02:52.360Z,94456.00
2023-02-24T05:03:52.376Z,94454.00
2023-02-24T05:04:52.375Z,94454.00
2023-02-24T05:05:52.328Z,94454.00
2023-02-24T05:06:52.331Z,94454.00
2023-02-24T05:07:52.370Z,94456.00
2023-02-24T05:08:52.318Z,94456.00
2023-02-24T05:09:52.310Z,94454.00
2023-02-24T05:10:52.304Z,94452.00
2023-02-24T05:11:52.288Z,94448.00
2023-02-24T05:12:52.372Z,94448.00
2023-02-24T05:13:52.372Z,94446.00
2023-02-24T05:14:52.384Z,94444.00
2023-02-24T05:15:52.464Z,94442.00
2023-02-24T05:16:52.462Z,94442.00
2023-02-24T05:17:52.505Z,94438.00
2023-02-24T05:18:52.521Z,94440.00
2023-02-24T05:19:52.583Z,94440.00
2023-02-24T05:20:52.601Z,94440.00
2023-02-24T05:21:52.631Z,94434.00
2023-02-24T05:22:52.693Z,94428.00
2023-02-24T05:23:52.689Z,94428.00
2023-02-24T05:24:52.707Z,94428.00
2023-02-24T05:25:52.768Z,94425.00
2023-02-24T05:26:52.816Z,94423.00
2023-02-24T05:27:52.797Z,94425.00
2023-02-24T05:28:52.892Z,94423.00
2023-02-24T05:29:55.373Z,94425.00
2023-02-24T05:30:53.010Z,94425.00
2023-02-24T05:31:53.139Z,94425.00
2023-02-24T05:32:53.085Z,94425.00
2023-02-24T05:33:53.150Z,94425.00
2023-02-24T05:34:53.163Z,94419.00
2023-02-24T05:35:53.180Z,94419.00
2023-02-24T05:36:53.224Z,94417.00
2023-02-24T05:37:53.267Z,94417.00
2023-02-24T05:38:55.561Z,94417.00
2023-02-24T05:39:53.270Z,94417.00
2023-02-24T05:40:53.270Z,94415.00
2023-02-24T05:41:53.310Z,94415.00
2023-02-24T05:42:53.269Z,94415.00
2023-02-24T05:43:53.273Z,94415.00
2023-02-24T05:44:53.258Z,94409.00
2023-02-24T05:45:53.280Z,94407.00
2023-02-24T05:46:53.347Z,94411.00
2023-02-24T05:47:53.257Z,94409.00
2023-02-24T05:48:53.256Z,94411.00
2023-02-24T05:49:53.241Z,94411.00
2023-02-24T05:50:53.201Z,94411.00
2023-02-24T05:51:53.238Z,94407.00
2023-02-24T05:52:53.224Z,94405.00
2023-02-24T05:53:53.197Z,94405.00
2023-02-24T05:54:53.216Z,94405.00
2023-02-24T05:55:53.176Z,94407.00
2023-02-24T05:56:53.184Z,94405.00
2023-02-24T05:57:53.188Z,94407.00
2023-02-24T05:58:54.774Z,94407.00
2023-02-24T05:59:53.152Z,94403.00
2023-02-24T06:01:00.183Z,94409.00
2023-02-24T09:33:56.518Z,94217.00
2023-02-24T09:46:56.578Z,94185.00
2023-02-24T09:47:56.491Z,94187.00
2023-02-24T09:48:56.558Z,94189.00
2023-02-24T09:49:57.037Z,94185.00
2023-02-24T09:51:56.627Z,94180.00
2023-02-24T09:53:02.949Z,94176.00
2023-02-24T09:54:56.662Z,94170.00
2023-02-24T09:55:56.680Z,94166.00
2023-02-24T09:56:56.621Z,94162.00
2023-02-24T09:57:56.628Z,94156.00
2023-02-24T09:58:56.582Z,94158.00
2023-02-24T09:59:56.601Z,94154.00
2023-02-24T10:00:56.655Z,94152.00
2023-02-24T10:01:56.683Z,94150.00
2023-02-24T10:02:56.630Z,94148.00
2023-02-24T10:03:57.606Z,94154.00
2023-02-24T10:04:56.685Z,94148.00
2023-02-24T10:05:56.579Z,94146.00
2023-02-24T10:06:56.598Z,94146.00
2023-02-24T10:07:56.589Z,94146.00
2023-02-24T10:08:56.590Z,94146.00
2023-02-24T10:09:56.675Z,94145.00
2023-02-24T10:10:56.662Z,94146.00
2023-02-24T10:11:56.743Z,94143.00
2023-02-24T10:12:56.701Z,94143.00
2023-02-24T10:14:03.386Z,94139.00
2023-02-24T10:15:57.182Z,94137.00
2023-02-24T10:16:56.762Z,94133.00
2023-02-24T10:17:56.698Z,94133.00
2023-02-24T10:18:56.698Z,94131.00
2023-02-24T10:19:56.730Z,94121.00
2023-02-24T10:20:56.700Z,94119.00
2023-02-24T10:21:56.680Z,94113.00
2023-02-24T10:22:56.656Z,94111.00
2023-02-24T10:23:56.870Z,94109.00
2023-02-24T10:24:56.719Z,94105.00
2023-02-24T10:25:56.676Z,94107.00
2023-02-24T10:27:07.385Z,94105.00
2023-02-24T10:28:56.646Z,94095.00
2023-02-24T10:29:56.729Z,94093.00
2023-02-24T10:30:56.770Z,94095.00
2023-02-24T10:31:56.859Z,94095.00
2023-02-24T10:32:56.601Z,94093.00
2023-02-24T10:33:56.631Z,94093.00
2023-02-24T10:34:56.592Z,94090.00
2023-02-24T10:35:56.570Z,94093.00
2023-02-24T10:36:56.607Z,94092.00
2023-02-24T10:37:56.611Z,94088.00
2023-02-24T10:38:56.551Z,94086.00
2023-02-24T10:39:57.076Z,94084.00
2023-02-24T10:40:56.658Z,94082.00
2023-02-24T10:41:56.738Z,94084.00
2023-02-24T10:42:56.749Z,94074.00
2023-02-24T10:43:56.817Z,94072.00
2023-02-24T10:45:01.674Z,94064.00
2023-02-24T10:46:56.823Z,94054.00
2023-02-24T10:48:56.781Z,94054.00
2023-02-24T11:13:57.622Z,94007.00
2023-02-24T15:32:06.619Z,93617.00
2023-02-24T15:33:06.526Z,93625.00
2023-02-24T15:34:06.553Z,93625.00
2023-02-24T15:35:06.637Z,93610.00
2023-02-24T15:36:06.673Z,93606.00
2023-02-24T15:37:08.736Z,93608.00
2023-02-24T15:38:06.726Z,93617.00
2023-02-24T15:39:06.758Z,93606.00
2023-02-24T15:40:06.702Z,93606.00
2023-02-24T15:41:06.707Z,93600.00
2023-02-24T15:42:06.721Z,93606.00
2023-02-24T15:43:06.674Z,93602.00
2023-02-24T15:44:06.697Z,93600.00
2023-02-24T15:45:06.734Z,93596.00
2023-02-24T15:46:06.716Z,93598.00
2023-02-24T15:47:06.729Z,93610.00
2023-02-24T15:48:06.690Z,93635.00
2023-02-24T15:49:06.674Z,93606.00
2023-02-24T15:50:06.672Z,93596.00
2023-02-24T15:51:06.664Z,93617.00
2023-02-24T15:52:06.660Z,93604.00
2023-02-24T15:53:06.615Z,93596.00
2023-02-24T15:54:06.593Z,93596.00
2023-02-24T15:55:06.590Z,93592.00
2023-02-24T15:56:06.616Z,93606.00
2023-02-24T15:57:06.609Z,93602.00
2023-02-24T15:58:06.578Z,93596.00
2023-02-24T15:59:06.590Z,93590.00
2023-02-24T16:00:06.577Z,93588.00
2023-02-24T16:01:06.589Z,93598.00
2023-02-24T16:02:06.594Z,93580.00
2023-02-24T16:03:06.558Z,93588.00
2023-02-24T16:04:06.645Z,93584.00
2023-02-24T16:05:06.572Z,93580.00
2023-02-24T16:06:06.611Z,93578.00
2023-02-24T16:07:06.537Z,93574.00
2023-02-24T16:08:06.567Z,93584.00
2023-02-24T16:09:06.526Z,93578.00
2023-02-24T16:10:06.523Z,93572.00
2023-02-24T16:11:06.555Z,93602.00
2023-02-24T16:12:06.505Z,93582.00
2023-02-24T16:13:06.516Z,93574.00
2023-02-24T16:14:06.606Z,93569.00
2023-02-24T16:15:06.650Z,93571.00
2023-02-24T16:16:06.791Z,93588.00
2023-02-24T16:17:06.786Z,93569.00
2023-02-24T16:18:06.816Z,93571.00
2023-02-24T16:19:06.875Z,93572.00
2023-02-24T16:20:06.943Z,93574.00
2023-02-24T16:21:07.065Z,93565.00
2023-02-24T16:22:07.062Z,93557.00
2023-02-24T16:23:07.110Z,93563.00
2023-02-24T16:24:07.153Z,93569.00
2023-02-24T16:25:07.208Z,93584.00
2023-02-24T16:26:07.302Z,93594.00
2023-02-24T16:27:07.322Z,93576.00
2023-02-24T16:28:07.400Z,93563.00
2023-02-24T16:29:07.465Z,93574.00
2023-02-24T16:30:07.452Z,93572.00
2023-02-24T16:31:07.615Z,93571.00
2023-02-24T16:32:07.742Z,93584.00
2023-02-24T16:33:07.689Z,93571.00
2023-02-24T16:34:07.587Z,93580.00
2023-02-24T16:35:07.623Z,93580.00
2023-02-24T16:36:07.666Z,93572.00
2023-02-24T16:37:07.743Z,93578.00
2023-02-24T16:38:07.777Z,93588.00
2023-02-24T16:39:07.817Z,93576.00
2023-02-24T16:40:07.870Z,93569.00
2023-02-24T16:41:07.932Z,93580.00
2023-02-24T16:42:07.974Z,93572.00
2023-02-24T16:43:07.984Z,93574.00
2023-02-24T16:44:08.034Z,93580.00
2023-02-24T16:45:08.073Z,93582.00
2023-02-24T16:46:08.135Z,93594.00
2023-02-24T16:47:08.106Z,93584.00
2023-02-24T16:48:08.155Z,93576.00
2023-02-24T16:49:08.204Z,93582.00
2023-02-24T16:50:08.251Z,93582.00
2023-02-24T16:51:08.263Z,93578.00
2023-02-24T16:52:08.321Z,93572.00
2023-02-24T16:53:08.311Z,93588.00
2023-02-24T16:54:08.334Z,93580.00
2023-02-24T16:55:08.372Z,93582.00
2023-02-24T16:56:08.392Z,93604.00
2023-02-24T16:57:08.391Z,93588.00
2023-02-24T16:58:08.422Z,93598.00
2023-02-24T16:59:08.461Z,93582.00
2023-02-24T17:00:08.504Z,93576.00
2023-02-24T17:01:08.591Z,93574.00
2023-02-24T17:02:08.553Z,93574.00
2023-02-24T17:03:08.630Z,93584.00
2023-02-24T17:04:08.721Z,93574.00
2023-02-24T17:05:08.685Z,93596.00
2023-02-24T17:06:08.725Z,93586.00
2023-02-24T17:07:08.759Z,93578.00
2023-02-24T17:08:08.799Z,93571.00
2023-02-24T17:09:08.819Z,93569.00
2023-02-24T17:10:08.845Z,93574.00
2023-02-24T17:11:08.856Z,93567.00
2023-02-24T17:12:08.895Z,93572.00
2023-02-24T17:13:08.939Z,93588.00
2023-02-24T17:14:08.933Z,93576.00
2023-02-24T17:15:08.957Z,93563.00
2023-02-24T17:16:09.003Z,93567.00
2023-02-24T17:17:09.083Z,93574.00
2023-02-24T17:18:09.044Z,93578.00
2023-02-24T17:19:09.062Z,93588.00
2023-02-24T17:20:09.073Z,93584.00
2023-02-24T17:21:09.095Z,93580.00
2023-02-24T17:22:09.108Z,93578.00
2023-02-24T17:23:09.186Z,93576.00
2023-02-24T17:24:09.215Z,93574.00
2023-02-24T17:26:09.221Z,93571.00
2023-02-24T17:27:09.300Z,93569.00
2023-02-24T17:28:09.298Z,93578.00
2023-02-24T17:29:09.327Z,93569.00
2023-02-24T17:30:09.352Z,93571.00
2023-02-24T17:31:09.566Z,93572.00
2023-02-24T17:32:09.538Z,93569.00
2023-02-24T17:33:09.455Z,93565.00
2023-02-24T17:34:09.518Z,93561.00
2023-02-24T17:35:09.557Z,93569.00
2023-02-24T17:36:09.583Z,93567.00
2023-02-24T17:37:09.583Z,93561.00
2023-02-24T17:38:09.622Z,93565.00
2023-02-24T17:39:09.674Z,93567.00
2023-02-24T17:40:09.713Z,93559.00
2023-02-24T17:41:09.699Z,93563.00
2023-02-24T17:42:09.721Z,93555.00
2023-02-24T17:43:09.775Z,93567.00
2023-02-24T17:44:09.764Z,93565.00
2023-02-24T17:45:09.779Z,93569.00
2023-02-24T17:46:09.868Z,93569.00
2023-02-24T17:47:09.786Z,93571.00
2023-02-24T17:48:09.856Z,93561.00
2023-02-24T17:49:09.890Z,93561.00
2023-02-24T17:50:09.944Z,93559.00
2023-02-24T17:51:09.974Z,93557.00
2023-02-24T17:52:09.987Z,93565.00
2023-02-24T17:53:10.006Z,93569.00
2023-02-24T17:54:09.999Z,93567.00
2023-02-24T17:55:10.090Z,93559.00
2023-02-24T17:56:10.054Z,93565.00
2023-02-24T21:18:16.477Z,93502.00
2023-02-24T21:19:16.485Z,93498.00
2023-02-24T21:20:16.551Z,93492.00
2023-02-24T21:21:16.578Z,93486.00
2023-02-24T21:22:16.594Z,93484.00
2023-02-24T21:23:16.615Z,93482.00
2023-02-24T21:24:16.645Z,93478.00
2023-02-24T21:25:16.664Z,93474.00
2023-02-24T21:26:16.706Z,93476.00
2023-02-24T21:27:16.702Z,93478.00
2023-02-24T21:28:16.710Z,93476.00
2023-02-24T21:29:16.802Z,93478.00
2023-02-24T21:30:16.776Z,93480.00
2023-02-24T21:31:17.094Z,93482.00
2023-02-24T21:32:16.946Z,93478.00
2023-02-24T21:33:16.853Z,93478.00
2023-02-24T21:34:16.934Z,93476.00
2023-02-24T21:35:16.912Z,93470.00
2023-02-24T21:36:16.955Z,93472.00
2023-02-24T21:37:16.972Z,93470.00
2023-02-24T21:38:16.981Z,93472.00
2023-02-24T21:39:17.008Z,93472.00
2023-02-24T21:40:17.070Z,93470.00
2023-02-24T21:41:17.057Z,93472.00
2023-02-24T21:42:17.114Z,93470.00
2023-02-24T21:43:17.134Z,93472.00
2023-02-24T21:44:17.173Z,93472.00
2023-02-24T21:45:17.182Z,93476.00
2023-02-24T21:46:17.230Z,93474.00
2023-02-24T21:47:17.222Z,93474.00
2023-02-24T21:48:17.251Z,93474.00
2023-02-24T21:49:17.284Z,93474.00
2023-02-24T21:50:17.267Z,93474.00
2023-02-24T21:51:17.349Z,93470.00
2023-02-24T21:52:17.367Z,93474.00
2023-02-24T21:53:17.367Z,93472.00
2023-02-24T21:54:17.363Z,93472.00
2023-02-24T21:55:17.390Z,93470.00
2023-02-24T21:56:17.434Z,93472.00
2023-02-24T21:57:17.480Z,93467.00
2023-02-24T21:58:17.471Z,93470.00
2023-02-24T21:59:17.481Z,93476.00
2023-02-24T22:00:17.550Z,93472.00
2023-02-24T22:01:17.562Z,93474.00
2023-02-24T22:02:17.584Z,93474.00
2023-02-24T22:03:17.678Z,93474.00
2023-02-24T22:04:17.642Z,93476.00
2023-02-24T22:05:17.685Z,93478.00
2023-02-24T22:06:17.693Z,93480.00
2023-02-24T22:07:17.768Z,93482.00
2023-02-24T22:08:17.714Z,93484.00
2023-02-24T22:09:17.783Z,93486.00
2023-02-24T22:10:17.787Z,93490.00
2023-02-24T22:11:17.786Z,93490.00
2023-02-24T22:12:17.807Z,93490.00
2023-02-24T22:13:17.830Z,93494.00
2023-02-24T22:14:17.899Z,93492.00
2023-02-24T22:15:17.866Z,93490.00
2023-02-24T22:16:17.884Z,93490.00
2023-02-24T22:17:17.885Z,93490.00
2023-02-24T22:18:20.190Z,93492.00
2023-02-24T22:19:17.902Z,93496.00
2023-02-24T22:20:17.899Z,93502.00
2023-02-24T22:21:17.877Z,93502.00
2023-02-24T22:22:17.889Z,93508.00
2023-02-24T22:23:17.882Z,93508.00
2023-02-24T22:24:17.851Z,93512.00
2023-02-24T22:25:17.822Z,93508.00
2023-02-24T22:26:17.847Z,93504.00
2023-02-24T22:27:17.841Z,93504.00
2023-02-24T22:28:17.866Z,93500.00
2023-02-24T22:29:17.840Z,93502.00
2023-02-24T22:30:17.814Z,93504.00
2023-02-24T22:31:17.918Z,93502.00
2023-02-24T22:32:17.984Z,93504.00
2023-02-24T22:33:17.773Z,93500.00
2023-02-24T22:34:17.813Z,93500.00
2023-02-24T22:35:17.765Z,93502.00
2023-02-24T22:36:17.779Z,93506.00
2023-02-24T22:37:17.778Z,93506.00
2023-02-24T22:38:17.788Z,93508.00
2023-02-24T22:39:17.758Z,93514.00
2023-02-24T22:40:19.276Z,93517.00
2023-02-24T22:41:17.755Z,93521.00
2023-02-24T22:42:17.730Z,93527.00
2023-02-24T22:43:17.756Z,93527.00
2023-02-24T22:44:17.727Z,93527.00
2023-02-24T22:45:17.713Z,93531.00
2023-02-24T22:46:17.756Z,93533.00
2023-02-24T22:47:17.738Z,93533.00
2023-02-24T22:48:17.731Z,93533.00
2023-02-24T22:49:17.716Z,93531.00
2023-02-24T22:50:17.691Z,93537.00
2023-02-24T22:51:17.681Z,93539.00
2023-02-24T22:52:17.679Z,93539.00
2023-02-24T22:53:17.677Z,93537.00
2023-02-24T22:54:17.678Z,93533.00
2023-02-24T22:55:17.654Z,93533.00
2023-02-24T22:56:17.660Z,93529.00
2023-02-24T22:57:17.639Z,93531.00
2023-02-24T22:58:17.638Z,93531.00
2023-02-24T22:59:17.655Z,93527.00
2023-02-24T23:00:17.625Z,93523.00
2023-02-24T23:01:17.742Z,93517.00
2023-02-24T23:02:17.620Z,93517.00
2023-02-24T23:03:17.603Z,93512.00
2023-02-24T23:04:17.595Z,93512.00
2023-02-24T23:05:17.611Z,93512.00
2023-02-24T23:06:17.614Z,93508.00
2023-02-24T23:07:17.573Z,93504.00
2023-02-24T23:08:17.578Z,93504.00
2023-02-24T23:09:17.574Z,93498.00
2023-02-24T23:10:17.580Z,93498.00
2023-02-24T23:11:17.558Z,93496.00
2023-02-24T23:12:17.543Z,93494.00
2023-02-24T23:13:17.531Z,93496.00
2023-02-24T23:14:17.521Z,93504.00
2023-02-24T23:15:17.544Z,93510.00
2023-02-24T23:16:17.599Z,93512.00
2023-02-24T23:17:17.514Z,93514.00
2023-02-24T23:18:17.501Z,93516.00
2023-02-24T23:19:17.539Z,93516.00
2023-02-24T23:20:17.501Z,93516.00
2023-02-24T23:21:17.451Z,93521.00
2023-02-24T23:22:17.469Z,93525.00
2023-02-24T23:23:17.469Z,93529.00
2023-02-24T23:24:17.463Z,93529.00
2023-02-24T23:25:17.442Z,93523.00
2023-02-24T23:26:17.436Z,93525.00
2023-02-24T23:27:17.432Z,93525.00
2023-02-24T23:28:17.440Z,93525.00
2023-02-24T23:29:17.405Z,93525.00
2023-02-24T23:30:17.435Z,93525.00
2023-02-24T23:31:17.566Z,93521.00
2023-02-24T23:32:17.589Z,93519.00
2023-02-24T23:33:17.378Z,93519.00
2023-02-24T23:34:17.400Z,93516.00
2023-02-24T23:35:17.375Z,93512.00
2023-02-24T23:36:17.380Z,93516.00
2023-02-24T23:37:17.417Z,93514.00
2023-02-24T23:38:17.366Z,93514.00